Time;durP1;ratioP1;P1;durP2;ratioP2;P2;SDS_P1;SDS_P2;PMS_P1;PMS_P2;Temp;Humidity;BMP_temperature;BMP_pressure;BME280_temperature;BME280_humidity;BME280_pressure;Samples;Min_cycle;Max_cycle;Signal;HPM_P1;HPM_P2
2023/06/13 00:01:48;;;;;;;6.60;4.22;;;18.20;99.90;;;;;;5036553;28;20045;-62
2023/06/13 00:04:21;;;;;;;6.25;3.95;;;18.20;99.90;;;;;;5040913;28;20040;-63
2023/06/13 00:06:47;;;;;;;7.68;4.55;;;18.10;99.90;;;;;;5033481;28;20491;-63
2023/06/13 00:09:13;;;;;;;7.72;4.25;;;18.00;99.90;;;;;;5039996;28;20660;-62
2023/06/13 00:11:38;;;;;;;6.53;4.20;;;18.00;99.90;;;;;;5038481;28;20041;-62
2023/06/13 00:14:04;;;;;;;8.13;4.40;;;17.80;99.90;;;;;;5046542;28;20033;-61
2023/06/13 00:16:29;;;;;;;6.50;4.32;;;17.80;99.90;;;;;;5038143;28;20112;-62
2023/06/13 00:18:56;;;;;;;7.38;4.47;;;17.80;99.90;;;;;;5038583;28;20041;-62
2023/06/13 00:21:21;;;;;;;6.22;4.20;;;17.80;99.90;;;;;;5036350;28;20029;-62
2023/06/13 00:23:47;;;;;;;8.35;4.03;;;17.70;99.90;;;;;;5040088;28;20480;-62
2023/06/13 00:26:12;;;;;;;4.22;3.38;;;17.70;99.90;;;;;;5044393;28;20067;-62
2023/06/13 00:28:38;;;;;;;7.50;4.60;;;17.60;99.90;;;;;;5038089;28;20029;-62
2023/06/13 00:31:03;;;;;;;10.13;4.57;;;17.60;99.90;;;;;;5040864;28;20090;-62
2023/06/13 00:33:31;;;;;;;12.35;4.22;;;17.50;99.90;;;;;;5040066;28;20049;-62
2023/06/13 00:35:56;;;;;;;9.45;4.40;;;17.40;99.90;;;;;;5040072;28;20108;-62
2023/06/13 00:38:23;;;;;;;10.02;4.20;;;17.30;99.90;;;;;;5037605;28;20164;-62
2023/06/13 00:40:50;;;;;;;5.35;4.40;;;17.30;99.90;;;;;;5037095;28;20037;-61
2023/06/13 00:43:17;;;;;;;16.70;5.78;;;17.30;99.90;;;;;;5040272;28;20127;-62
2023/06/13 00:45:43;;;;;;;7.28;4.20;;;17.20;99.90;;;;;;5043423;28;20025;-62
2023/06/13 00:48:09;;;;;;;8.00;4.43;;;17.10;99.90;;;;;;5043214;28;20040;-62
2023/06/13 00:50:40;;;;;;;9.52;4.88;;;17.10;99.90;;;;;;5043640;28;20107;-62
2023/06/13 00:53:11;;;;;;;7.45;4.40;;;17.00;99.90;;;;;;5040257;28;20025;-62
2023/06/13 00:55:37;;;;;;;5.57;4.22;;;16.90;99.90;;;;;;5043425;28;20553;-60
2023/06/13 00:58:06;;;;;;;11.10;4.75;;;16.80;99.90;;;;;;5039072;28;20065;-61
2023/06/13 01:00:36;;;;;;;8.20;4.85;;;16.90;99.90;;;;;;5043350;28;20107;-63
2023/06/13 01:03:09;;;;;;;12.68;4.88;;;16.90;99.90;;;;;;5039225;28;20131;-62
2023/06/13 01:05:36;;;;;;;18.35;5.30;;;17.00;99.90;;;;;;5042397;28;20025;-62
2023/06/13 01:08:06;;;;;;;10.52;4.00;;;17.00;99.90;;;;;;5037176;28;20106;-61
2023/06/13 01:10:33;;;;;;;8.07;4.80;;;17.10;99.90;;;;;;5039160;28;20083;-62
2023/06/13 01:13:13;;;;;;;7.28;4.22;;;17.20;99.90;;;;;;5036195;28;20113;-63
2023/06/13 01:15:51;;;;;;;10.52;4.90;;;17.20;99.90;;;;;;5041036;28;20029;-62
2023/06/13 01:18:22;;;;;;;5.70;3.90;;;17.20;99.90;;;;;;5041573;28;20096;-62
2023/06/13 01:20:56;;;;;;;7.55;4.25;;;17.00;99.90;;;;;;5038788;28;20036;-62
2023/06/13 01:23:49;;;;;;;6.45;4.32;;;17.00;99.90;;;;;;5043841;28;20027;-63
2023/06/13 01:26:25;;;;;;;6.47;4.40;;;16.80;99.90;;;;;;5038669;28;20025;-62
2023/06/13 01:28:52;;;;;;;7.90;3.90;;;16.80;99.90;;;;;;5045559;28;20039;-62
2023/06/13 01:31:22;;;;;;;9.13;4.50;;;16.60;99.90;;;;;;5048101;28;20018;-62
2023/06/13 01:33:48;;;;;;;8.25;4.07;;;16.60;99.90;;;;;;5045524;28;20462;-61
2023/06/13 01:36:14;;;;;;;7.97;4.45;;;16.60;99.90;;;;;;5045941;28;20044;-61
2023/06/13 01:38:40;;;;;;;9.75;3.92;;;16.60;99.90;;;;;;5043722;28;20076;-62
2023/06/13 01:41:06;;;;;;;8.38;4.93;;;16.50;99.90;;;;;;5043238;28;20459;-61
2023/06/13 01:43:32;;;;;;;8.88;4.20;;;16.40;99.90;;;;;;5045239;28;20033;-62
2023/06/13 01:46:15;;;;;;;9.23;4.45;;;16.30;99.90;;;;;;5043383;28;20117;-62
2023/06/13 01:48:56;;;;;;;7.32;4.57;;;16.30;99.90;;;;;;5044979;28;20053;-62
2023/06/13 01:51:30;;;;;;;9.80;4.72;;;16.20;99.90;;;;;;5039752;28;20049;-62
2023/06/13 01:54:01;;;;;;;9.27;4.57;;;16.10;99.90;;;;;;5045036;28;20029;-62
2023/06/13 01:56:31;;;;;;;6.75;4.47;;;16.00;99.90;;;;;;5039432;28;20029;-62
2023/06/13 01:59:05;;;;;;;7.38;4.22;;;15.90;99.90;;;;;;5040816;28;20514;-62
2023/06/13 02:01:32;;;;;;;7.18;4.32;;;15.80;99.90;;;;;;5044300;28;20040;-62
2023/06/13 02:03:59;;;;;;;8.23;4.25;;;15.80;99.90;;;;;;5039652;28;20506;-60
2023/06/13 02:06:24;;;;;;;8.18;4.28;;;15.70;99.90;;;;;;5045957;28;20021;-61
2023/06/13 02:08:50;;;;;;;8.48;4.10;;;15.80;99.90;;;;;;5040464;28;20552;-62
2023/06/13 02:11:15;;;;;;;8.75;4.70;;;15.70;99.90;;;;;;5046352;28;20061;-60
2023/06/13 02:13:41;;;;;;;7.95;4.82;;;15.70;99.90;;;;;;5041444;28;20029;-62
2023/06/13 02:16:06;;;;;;;11.70;4.90;;;15.70;99.90;;;;;;5037717;28;20406;-60
2023/06/13 02:18:32;;;;;;;10.30;5.40;;;15.60;99.90;;;;;;5039820;28;20096;-62
2023/06/13 02:20:58;;;;;;;7.55;4.93;;;15.60;99.90;;;;;;5046211;28;20033;-62
2023/06/13 02:23:23;;;;;;;9.73;4.75;;;15.50;99.90;;;;;;5044502;28;20060;-59
2023/06/13 02:25:51;;;;;;;12.98;4.40;;;15.50;99.90;;;;;;5049155;28;20115;-61
2023/06/13 02:28:18;;;;;;;8.88;5.10;;;15.40;99.90;;;;;;5043132;28;20116;-62
2023/06/13 02:30:44;;;;;;;10.65;4.75;;;15.30;99.90;;;;;;5045724;28;20032;-62
2023/06/13 02:33:10;;;;;;;7.47;5.00;;;15.20;99.90;;;;;;5037073;28;20064;-62
2023/06/13 02:35:36;;;;;;;8.80;5.15;;;15.20;99.90;;;;;;5043237;28;20061;-62
2023/06/13 02:38:06;;;;;;;10.52;5.28;;;15.20;99.90;;;;;;5040749;28;20104;-61
2023/06/13 02:40:32;;;;;;;10.43;5.55;;;15.20;99.90;;;;;;5044289;28;20032;-61
2023/06/13 02:42:58;;;;;;;8.38;4.82;;;15.10;99.90;;;;;;5045001;28;20429;-62
2023/06/13 02:45:23;;;;;;;7.65;4.68;;;15.10;99.90;;;;;;5044649;28;20086;-62
2023/06/13 02:47:50;;;;;;;13.90;4.75;;;15.10;99.90;;;;;;5033783;28;20025;-60
2023/06/13 02:50:15;;;;;;;10.07;5.25;;;15.10;99.90;;;;;;5039943;28;20219;-62
2023/06/13 02:52:41;;;;;;;9.00;5.55;;;15.00;99.90;;;;;;5044718;28;20119;-60
2023/06/13 02:55:08;;;;;;;10.90;4.90;;;15.10;99.90;;;;;;5038484;28;20114;-62
2023/06/13 02:57:36;;;;;;;9.90;4.95;;;15.10;99.90;;;;;;5043712;28;20032;-61
2023/06/13 03:00:04;;;;;;;9.75;5.22;;;15.00;99.90;;;;;;5035370;28;20025;-62
2023/06/13 03:02:31;;;;;;;9.25;5.07;;;15.00;99.90;;;;;;5036669;28;20477;-62
2023/06/13 03:04:57;;;;;;;9.40;5.45;;;14.90;99.90;;;;;;5034957;28;20040;-62
2023/06/13 03:07:23;;;;;;;8.90;5.10;;;14.90;99.90;;;;;;5034834;28;21472;-61
2023/06/13 03:09:49;;;;;;;13.48;4.85;;;14.90;99.90;;;;;;5039274;28;20033;-61
2023/06/13 03:12:15;;;;;;;6.78;4.75;;;14.80;99.90;;;;;;5042857;28;20025;-60
2023/06/13 03:14:41;;;;;;;13.68;5.07;;;14.80;99.90;;;;;;5045134;28;20060;-61
2023/06/13 03:17:07;;;;;;;9.30;5.90;;;14.80;99.90;;;;;;5043136;28;20033;-62
2023/06/13 03:19:32;;;;;;;11.15;5.43;;;14.70;99.90;;;;;;5032611;28;20021;-62
2023/06/13 03:21:58;;;;;;;8.23;4.30;;;14.60;99.90;;;;;;5048597;28;20091;-61
2023/06/13 03:24:23;;;;;;;10.77;5.45;;;14.70;99.90;;;;;;5042806;28;20090;-61
2023/06/13 03:26:49;;;;;;;8.52;5.32;;;14.60;99.90;;;;;;5043823;28;20406;-62
2023/06/13 03:29:15;;;;;;;7.85;5.15;;;14.60;99.90;;;;;;5041334;28;20032;-61
2023/06/13 03:31:40;;;;;;;8.27;5.10;;;14.60;99.90;;;;;;5037619;28;20026;-62
2023/06/13 03:34:06;;;;;;;9.00;5.32;;;14.50;99.90;;;;;;5034192;28;20030;-61
2023/06/13 03:36:34;;;;;;;10.27;5.63;;;14.50;99.90;;;;;;5054548;28;20093;-62
2023/06/13 03:39:00;;;;;;;10.57;5.50;;;14.50;99.90;;;;;;5041691;28;20423;-62
2023/06/13 03:41:26;;;;;;;8.70;4.53;;;14.60;99.90;;;;;;5052692;28;20086;-62
2023/06/13 03:43:52;;;;;;;11.27;5.45;;;14.60;99.90;;;;;;5035790;28;20328;-61
2023/06/13 03:46:17;;;;;;;7.40;4.80;;;14.60;99.90;;;;;;5039944;28;20087;-62
2023/06/13 03:48:43;;;;;;;8.98;5.60;;;14.60;99.90;;;;;;5040051;28;20060;-62
2023/06/13 03:51:08;;;;;;;10.05;5.50;;;14.60;99.90;;;;;;5048402;28;20025;-62
2023/06/13 03:53:34;;;;;;;8.88;5.32;;;14.60;99.90;;;;;;5033730;28;20079;-62
2023/06/13 03:56:00;;;;;;;10.45;4.75;;;14.50;99.90;;;;;;5049274;28;20134;-62
2023/06/13 03:58:26;;;;;;;9.38;4.88;;;14.60;99.90;;;;;;5038604;28;20112;-62
2023/06/13 04:00:54;;;;;;;8.68;4.90;;;14.60;99.90;;;;;;5037694;28;20112;-62
2023/06/13 04:03:19;;;;;;;10.68;5.75;;;14.50;99.90;;;;;;5038784;28;20032;-62
2023/06/13 04:05:45;;;;;;;8.73;4.82;;;14.50;99.90;;;;;;5051550;28;20029;-61
2023/06/13 04:08:11;;;;;;;11.73;5.85;;;14.60;99.90;;;;;;5046595;28;20398;-61
2023/06/13 04:10:37;;;;;;;9.35;5.55;;;14.50;99.90;;;;;;5037449;28;20029;-62
2023/06/13 04:13:02;;;;;;;11.07;5.43;;;14.60;99.90;;;;;;5036045;28;20033;-61
2023/06/13 04:15:28;;;;;;;7.70;4.60;;;14.60;99.90;;;;;;5037803;28;21806;-62
2023/06/13 04:17:54;;;;;;;6.53;4.57;;;14.70;99.90;;;;;;5036643;28;20028;-62
2023/06/13 04:20:21;;;;;;;10.70;5.45;;;14.70;99.90;;;;;;5036197;28;20041;-63
2023/06/13 04:22:48;;;;;;;12.68;5.70;;;14.70;99.90;;;;;;5033346;28;20033;-62
2023/06/13 04:25:15;;;;;;;9.52;5.20;;;14.70;99.90;;;;;;5037172;28;20078;-62
2023/06/13 04:27:43;;;;;;;16.55;5.10;;;14.80;99.90;;;;;;5038486;28;20021;-61
2023/06/13 04:30:09;;;;;;;8.48;4.93;;;14.80;99.90;;;;;;5038712;28;20041;-62
2023/06/13 04:32:35;;;;;;;9.70;5.40;;;14.80;99.90;;;;;;5037937;28;20528;-62
2023/06/13 04:35:01;;;;;;;9.38;5.60;;;14.90;99.90;;;;;;5031406;28;20125;-62
2023/06/13 04:37:27;;;;;;;11.65;6.05;;;15.00;99.90;;;;;;5033423;28;20051;-61
2023/06/13 04:39:53;;;;;;;8.45;5.22;;;15.00;99.90;;;;;;5035925;28;20483;-57
2023/06/13 04:42:28;;;;;;;11.25;5.82;;;15.10;99.90;;;;;;5032697;28;20570;-62
2023/06/13 04:44:56;;;;;;;9.63;5.95;;;15.20;99.90;;;;;;5041210;28;20153;-61
2023/06/13 04:47:32;;;;;;;14.38;5.63;;;15.20;99.90;;;;;;5040071;28;20049;-62
2023/06/13 04:49:58;;;;;;;8.30;5.43;;;15.30;99.90;;;;;;5032036;28;20072;-61
2023/06/13 04:52:32;;;;;;;8.30;5.18;;;15.40;99.90;;;;;;5038575;28;20068;-62
2023/06/13 04:54:58;;;;;;;9.63;5.43;;;15.50;99.90;;;;;;5036661;28;20029;-62
2023/06/13 04:57:23;;;;;;;8.85;5.10;;;15.50;99.90;;;;;;5041689;28;20051;-59
2023/06/13 04:59:49;;;;;;;8.25;5.15;;;15.60;99.90;;;;;;5032518;28;20037;-61
2023/06/13 05:02:14;;;;;;;11.88;6.03;;;15.70;99.90;;;;;;5042189;28;20052;-62
2023/06/13 05:04:40;;;;;;;11.32;5.40;;;15.70;99.90;;;;;;5039168;28;20120;-61
2023/06/13 05:07:06;;;;;;;8.07;5.28;;;15.80;99.90;;;;;;5041082;28;20028;-62
2023/06/13 05:09:32;;;;;;;9.15;5.22;;;15.80;99.90;;;;;;5039570;28;20025;-63
2023/06/13 05:11:58;;;;;;;10.05;5.30;;;15.90;99.90;;;;;;5035772;28;20022;-61
2023/06/13 05:14:23;;;;;;;9.55;5.32;;;16.00;99.90;;;;;;5043923;28;20090;-61
2023/06/13 05:16:49;;;;;;;9.63;5.28;;;16.00;99.90;;;;;;5042426;28;20038;-60
2023/06/13 05:19:15;;;;;;;10.45;4.78;;;16.10;99.90;;;;;;5047814;28;20448;-61
2023/06/13 05:21:40;;;;;;;8.90;4.90;;;16.20;99.90;;;;;;5058075;28;20568;-62
2023/06/13 05:24:09;;;;;;;7.72;4.57;;;16.30;99.90;;;;;;5038402;28;20064;-62
2023/06/13 05:26:35;;;;;;;12.45;4.85;;;16.40;99.90;;;;;;5045346;28;20029;-62
2023/06/13 05:29:04;;;;;;;16.95;5.13;;;16.40;99.90;;;;;;5046054;28;20029;-62
2023/06/13 05:31:31;;;;;;;8.13;4.38;;;16.60;99.90;;;;;;5042960;28;20394;-65
2023/06/13 05:33:56;;;;;;;8.88;5.00;;;16.70;99.90;;;;;;5040133;28;20026;-61
2023/06/13 05:36:22;;;;;;;13.05;5.13;;;16.70;99.90;;;;;;5038313;28;20022;-63
2023/06/13 05:38:48;;;;;;;9.98;4.68;;;16.80;99.90;;;;;;5039431;28;20097;-62
2023/06/13 05:41:14;;;;;;;12.00;4.47;;;16.90;99.90;;;;;;5038305;28;20404;-63
2023/06/13 05:43:40;;;;;;;6.55;4.60;;;17.10;99.90;;;;;;5039489;28;20411;-62
2023/06/13 05:46:05;;;;;;;10.75;4.72;;;17.20;99.90;;;;;;5039583;28;20041;-62
2023/06/13 05:48:31;;;;;;;9.18;4.57;;;17.30;99.90;;;;;;5041285;28;20037;-63
2023/06/13 05:50:58;;;;;;;8.50;5.10;;;17.50;99.90;;;;;;5042781;28;20104;-61
2023/06/13 05:53:23;;;;;;;11.70;4.68;;;17.50;99.90;;;;;;5040488;28;20021;-63
2023/06/13 05:55:49;;;;;;;7.20;4.35;;;17.60;99.90;;;;;;5034667;28;20084;-63
2023/06/13 05:58:14;;;;;;;8.05;4.38;;;17.70;99.90;;;;;;5043577;28;20034;-62
2023/06/13 06:00:40;;;;;;;6.78;4.25;;;17.70;99.90;;;;;;5043673;28;20033;-62
2023/06/13 06:03:05;;;;;;;7.45;4.65;;;17.80;99.90;;;;;;5038865;28;20553;-61
2023/06/13 06:05:31;;;;;;;7.07;4.18;;;17.90;99.90;;;;;;5041132;28;20044;-59
2023/06/13 06:07:57;;;;;;;6.57;4.10;;;18.00;99.90;;;;;;5045398;28;20045;-56
2023/06/13 06:10:22;;;;;;;7.15;4.03;;;18.20;99.90;;;;;;5042251;28;20136;-62
2023/06/13 06:12:48;;;;;;;6.93;4.35;;;18.30;99.90;;;;;;5037043;28;20304;-60
2023/06/13 06:15:13;;;;;;;8.93;4.68;;;18.30;99.90;;;;;;5042939;28;20017;-61
2023/06/13 06:17:39;;;;;;;11.65;4.93;;;18.40;99.90;;;;;;5036976;28;20174;-62
2023/06/13 06:20:06;;;;;;;5.85;4.28;;;18.50;99.90;;;;;;5034820;28;20104;-62
2023/06/13 06:22:31;;;;;;;8.07;4.93;;;18.60;99.90;;;;;;5034201;28;20430;-62
2023/06/13 06:24:57;;;;;;;7.60;4.90;;;18.70;99.90;;;;;;5036584;28;20037;-62
2023/06/13 06:27:22;;;;;;;8.65;4.60;;;18.70;99.90;;;;;;5040390;28;20030;-61
2023/06/13 06:29:48;;;;;;;11.75;4.35;;;18.80;99.90;;;;;;5043115;28;20041;-61
2023/06/13 06:32:13;;;;;;;11.00;4.35;;;19.00;99.90;;;;;;5038843;28;20033;-62
2023/06/13 06:34:39;;;;;;;10.38;4.55;;;19.00;99.90;;;;;;5041053;28;20469;-62
2023/06/13 06:37:05;;;;;;;9.50;4.25;;;19.10;99.90;;;;;;5036781;28;20475;-63
2023/06/13 06:39:31;;;;;;;7.60;4.50;;;19.10;99.90;;;;;;5035800;28;20075;-63
2023/06/13 06:41:56;;;;;;;12.23;5.15;;;19.10;99.90;;;;;;5037177;28;20048;-62
2023/06/13 06:44:22;;;;;;;8.65;5.72;;;19.30;99.90;;;;;;5039652;28;20075;-61
2023/06/13 06:46:47;;;;;;;7.72;5.05;;;19.30;99.90;;;;;;5044925;28;20032;-60
2023/06/13 06:49:13;;;;;;;9.07;5.00;;;19.40;99.90;;;;;;5045129;28;20076;-63
2023/06/13 06:51:38;;;;;;;7.68;4.57;;;19.40;99.90;;;;;;5037438;28;20117;-61
2023/06/13 06:54:04;;;;;;;7.88;4.57;;;19.50;99.90;;;;;;5037438;28;20032;-62
2023/06/13 06:56:29;;;;;;;12.82;5.43;;;19.60;99.90;;;;;;5035619;28;20029;-62
2023/06/13 06:58:55;;;;;;;12.32;4.80;;;19.70;99.90;;;;;;5038114;28;20037;-62
2023/06/13 07:01:20;;;;;;;9.60;5.25;;;19.80;99.90;;;;;;5040352;28;20033;-59
2023/06/13 07:03:46;;;;;;;16.10;4.68;;;19.90;99.90;;;;;;5037096;28;20395;-62
2023/06/13 07:06:12;;;;;;;10.25;4.70;;;20.00;99.90;;;;;;5035918;28;20033;-61
2023/06/13 07:08:38;;;;;;;9.50;4.35;;;20.00;99.90;;;;;;5036306;28;20104;-60
2023/06/13 07:11:04;;;;;;;10.50;4.38;;;20.10;99.90;;;;;;5036014;28;20021;-63
2023/06/13 07:13:30;;;;;;;7.13;5.10;;;20.10;99.90;;;;;;5037742;28;20479;-58
2023/06/13 07:15:55;;;;;;;13.13;4.80;;;20.20;99.90;;;;;;5039222;28;20357;-61
2023/06/13 07:18:21;;;;;;;10.05;4.53;;;20.30;99.90;;;;;;5042332;28;20053;-62
2023/06/13 07:20:47;;;;;;;6.95;4.43;;;20.30;99.90;;;;;;5034091;28;20025;-61
2023/06/13 07:23:12;;;;;;;11.80;4.65;;;20.40;99.90;;;;;;5032367;28;20087;-58
2023/06/13 07:25:42;;;;;;;9.45;4.40;;;20.60;99.90;;;;;;5033879;28;20204;-61
2023/06/13 07:28:08;;;;;;;9.90;4.80;;;20.70;99.90;;;;;;5038964;28;20030;-62
2023/06/13 07:30:34;;;;;;;7.28;4.25;;;20.70;99.90;;;;;;5038539;28;20103;-61
2023/06/13 07:32:59;;;;;;;7.80;3.75;;;20.70;99.90;;;;;;5040241;28;20108;-62
2023/06/13 07:35:25;;;;;;;5.75;4.15;;;20.80;99.90;;;;;;5037967;28;20146;-63
2023/06/13 07:37:52;;;;;;;9.02;4.57;;;20.90;99.90;;;;;;5035901;28;20128;-63
2023/06/13 07:40:18;;;;;;;12.80;4.28;;;20.90;99.90;;;;;;5036447;28;20841;-61
2023/06/13 07:42:44;;;;;;;19.33;5.13;;;21.00;99.90;;;;;;5038338;28;20045;-63
2023/06/13 07:45:09;;;;;;;23.95;5.68;;;21.10;99.90;;;;;;5039181;28;20116;-63
2023/06/13 07:47:35;;;;;;;6.75;4.65;;;21.20;99.90;;;;;;5043901;28;20013;-63
2023/06/13 07:50:01;;;;;;;10.43;5.45;;;21.20;99.90;;;;;;5035104;28;20546;-62
2023/06/13 07:52:27;;;;;;;8.70;4.60;;;21.20;99.90;;;;;;5032245;28;20124;-63
2023/06/13 07:54:52;;;;;;;9.80;4.25;;;21.30;99.90;;;;;;5036224;28;20037;-62
2023/06/13 07:57:18;;;;;;;20.48;4.88;;;21.40;99.90;;;;;;5037493;28;20136;-63
2023/06/13 07:59:44;;;;;;;7.90;4.07;;;21.40;99.90;;;;;;5041229;28;20112;-63
2023/06/13 08:02:10;;;;;;;14.23;4.25;;;21.50;99.90;;;;;;5038338;28;20092;-63
2023/06/13 08:04:36;;;;;;;9.38;5.05;;;21.60;99.90;;;;;;5039772;28;20029;-63
2023/06/13 08:07:01;;;;;;;13.95;4.20;;;21.60;99.90;;;;;;5039431;28;20021;-63
2023/06/13 08:09:27;;;;;;;9.77;4.40;;;21.70;99.90;;;;;;5038126;28;20116;-64
2023/06/13 08:11:53;;;;;;;10.82;3.92;;;21.80;99.90;;;;;;5033348;28;20395;-63
2023/06/13 08:14:18;;;;;;;7.95;4.35;;;21.90;99.90;;;;;;5038126;28;20545;-63
2023/06/13 08:16:44;;;;;;;9.38;4.13;;;21.90;99.90;;;;;;5036597;28;20032;-63
2023/06/13 08:19:10;;;;;;;5.75;3.78;;;22.00;99.90;;;;;;5039955;28;20456;-63
2023/06/13 08:21:35;;;;;;;6.80;4.45;;;22.10;99.90;;;;;;5033286;28;20291;-64
2023/06/13 08:24:01;;;;;;;9.57;4.40;;;22.10;99.70;;;;;;5036788;28;20433;-63
2023/06/13 08:26:27;;;;;;;11.75;4.45;;;22.20;98.00;;;;;;5032774;28;20384;-64
2023/06/13 08:28:53;;;;;;;8.75;4.38;;;22.30;99.70;;;;;;5043376;28;20445;-63
2023/06/13 08:31:23;;;;;;;7.20;4.40;;;22.30;97.20;;;;;;5036239;28;20506;-63
2023/06/13 08:33:50;;;;;;;5.90;4.20;;;22.40;99.90;;;;;;5036377;28;20029;-63
2023/06/13 08:36:16;;;;;;;10.85;4.10;;;22.50;98.50;;;;;;5038070;28;20072;-64
2023/06/13 08:38:42;;;;;;;7.13;4.35;;;22.60;98.70;;;;;;5048142;28;20025;-63
2023/06/13 08:41:08;;;;;;;6.63;4.05;;;22.70;98.60;;;;;;5044407;28;20125;-64
2023/06/13 08:43:34;;;;;;;7.00;4.30;;;22.70;96.40;;;;;;5038366;28;20097;-64
2023/06/13 08:46:00;;;;;;;9.63;4.20;;;22.80;96.20;;;;;;5039589;28;20032;-64
2023/06/13 08:48:25;;;;;;;10.50;4.65;;;22.80;96.90;;;;;;5046125;28;20036;-63
2023/06/13 08:50:52;;;;;;;7.47;3.83;;;22.90;97.30;;;;;;5048232;28;20025;-64
2023/06/13 08:53:19;;;;;;;8.73;4.07;;;23.00;94.00;;;;;;5035705;28;20396;-60
2023/06/13 08:55:45;;;;;;;6.78;4.18;;;23.10;95.70;;;;;;5039305;28;20033;-63
2023/06/13 08:58:14;;;;;;;7.30;4.45;;;23.20;93.20;;;;;;5039175;28;20025;-62
2023/06/13 09:00:40;;;;;;;7.13;3.60;;;23.30;94.70;;;;;;5043113;28;20038;-64
2023/06/13 09:03:12;;;;;;;5.80;3.80;;;23.40;92.70;;;;;;5037965;28;20404;-64
2023/06/13 09:05:38;;;;;;;13.02;4.22;;;23.50;93.40;;;;;;5038248;28;20120;-64
2023/06/13 09:08:04;;;;;;;7.18;4.18;;;23.60;91.10;;;;;;5036018;28;20030;-64
2023/06/13 09:10:30;;;;;;;6.13;4.30;;;23.60;93.20;;;;;;5047064;28;20491;-63
2023/06/13 09:12:56;;;;;;;11.70;3.80;;;23.70;93.20;;;;;;5043515;28;20040;-64
2023/06/13 09:15:23;;;;;;;9.18;4.05;;;23.80;92.20;;;;;;5043085;28;20025;-64
2023/06/13 09:17:53;;;;;;;7.65;3.55;;;23.90;91.30;;;;;;5036258;28;21009;-64
2023/06/13 09:20:19;;;;;;;4.38;3.58;;;24.00;89.60;;;;;;5041850;28;20089;-65
2023/06/13 09:22:45;;;;;;;8.98;3.67;;;24.00;89.10;;;;;;5038906;28;20025;-64
2023/06/13 09:25:16;;;;;;;5.72;4.05;;;24.10;88.90;;;;;;5038230;28;20025;-64
2023/06/13 09:27:42;;;;;;;7.47;4.13;;;24.20;91.50;;;;;;5046410;28;20029;-64
2023/06/13 09:30:08;;;;;;;7.07;4.00;;;24.30;89.70;;;;;;5042289;28;20422;-62
2023/06/13 09:32:35;;;;;;;7.63;4.57;;;24.40;91.20;;;;;;5040960;28;22078;-63
2023/06/13 09:35:04;;;;;;;7.45;4.75;;;24.50;91.80;;;;;;5043592;28;20064;-65
2023/06/13 09:37:32;;;;;;;6.70;4.15;;;24.60;89.50;;;;;;5037267;28;20030;-64
2023/06/13 09:40:05;;;;;;;7.70;3.95;;;24.70;86.40;;;;;;5039693;28;20029;-64
2023/06/13 09:42:32;;;;;;;6.63;4.13;;;24.80;86.40;;;;;;5035304;28;20499;-64
2023/06/13 09:44:57;;;;;;;5.28;3.80;;;24.80;87.20;;;;;;5039374;28;20087;-64
2023/06/13 09:47:25;;;;;;;9.57;4.38;;;25.00;91.20;;;;;;5035600;28;20028;-64
2023/06/13 09:49:58;;;;;;;7.18;4.10;;;25.10;90.40;;;;;;5036755;28;20082;-64
2023/06/13 09:52:30;;;;;;;9.82;3.85;;;25.20;91.60;;;;;;5037753;28;20026;-65
2023/06/13 09:54:56;;;;;;;4.72;3.38;;;25.50;87.80;;;;;;5040943;28;20068;-64
2023/06/13 09:57:23;;;;;;;7.45;3.58;;;25.60;88.30;;;;;;5039891;28;20028;-65
2023/06/13 09:59:50;;;;;;;8.95;4.55;;;25.70;88.40;;;;;;5037736;28;20029;-65
2023/06/13 10:02:17;;;;;;;6.82;4.10;;;25.80;84.30;;;;;;5032646;28;20026;-61
2023/06/13 10:04:43;;;;;;;5.70;4.35;;;25.70;88.40;;;;;;5032501;28;20037;-63
2023/06/13 10:07:11;;;;;;;7.57;4.28;;;26.00;89.80;;;;;;5035612;28;20025;-64
2023/06/13 10:09:37;;;;;;;5.38;3.53;;;26.20;89.30;;;;;;5035043;28;20496;-66
2023/06/13 10:12:07;;;;;;;7.90;3.92;;;26.30;78.10;;;;;;5036735;28;20216;-65
2023/06/13 10:14:36;;;;;;;7.80;4.13;;;26.30;82.50;;;;;;5035892;28;20108;-65
2023/06/13 10:17:08;;;;;;;6.03;3.53;;;26.40;81.60;;;;;;5038905;28;20060;-65
2023/06/13 10:19:38;;;;;;;5.07;3.40;;;26.50;81.40;;;;;;5016842;28;20438;-64
2023/06/13 10:22:06;;;;;;;4.15;3.45;;;26.60;84.00;;;;;;5035231;28;20061;-64
2023/06/13 10:24:34;;;;;;;4.55;3.53;;;26.70;79.10;;;;;;5018560;28;20052;-64
2023/06/13 10:27:01;;;;;;;7.68;4.22;;;26.60;75.90;;;;;;5037212;28;20419;-65
2023/06/13 10:29:54;;;;;;;9.32;4.20;;;26.70;78.90;;;;;;5045765;28;20025;-65
2023/06/13 10:32:32;;;;;;;5.65;4.07;;;27.00;80.10;;;;;;5034277;28;20048;-65
2023/06/13 10:35:16;;;;;;;10.38;3.67;;;27.10;79.10;;;;;;5047342;28;20037;-64
2023/06/13 10:38:05;;;;;;;7.60;4.28;;;27.30;76.80;;;;;;5036682;28;20079;-65
2023/06/13 10:40:49;;;;;;;5.40;3.60;;;27.30;71.40;;;;;;5031897;28;20052;-64
2023/06/13 10:43:35;;;;;;;5.75;3.67;;;27.30;73.00;;;;;;5034681;28;20059;-64
2023/06/13 10:46:07;;;;;;;5.90;3.95;;;27.50;68.90;;;;;;5038952;28;20033;-63
2023/06/13 10:48:49;;;;;;;8.77;4.05;;;27.60;75.10;;;;;;5038269;28;20049;-64
2023/06/13 10:51:30;;;;;;;9.07;4.20;;;27.80;70.70;;;;;;5034138;28;20029;-63
2023/06/13 10:54:02;;;;;;;7.45;3.72;;;28.00;71.30;;;;;;5041248;28;20034;-66
2023/06/13 10:56:32;;;;;;;6.15;4.28;;;28.20;64.60;;;;;;5037391;28;20026;-63
2023/06/13 10:59:06;;;;;;;9.15;4.38;;;28.20;67.60;;;;;;5036481;28;20060;-62
2023/06/13 11:01:33;;;;;;;9.10;4.30;;;28.10;69.00;;;;;;5039033;28;20060;-63
2023/06/13 11:04:10;;;;;;;6.20;4.03;;;28.20;69.30;;;;;;5032880;28;20383;-64
2023/06/13 11:06:37;;;;;;;7.45;4.13;;;27.80;66.10;;;;;;5031205;28;20030;-64
2023/06/13 11:09:20;;;;;;;7.88;3.88;;;27.90;69.30;;;;;;5040121;28;20368;-65
2023/06/13 11:12:02;;;;;;;9.90;4.43;;;28.20;66.20;;;;;;5031004;28;20755;-65
2023/06/13 11:14:31;;;;;;;9.70;3.78;;;28.30;70.20;;;;;;5035363;28;20039;-63
2023/06/13 11:16:57;;;;;;;9.25;4.15;;;28.40;62.60;;;;;;5038008;28;20025;-66
2023/06/13 11:19:26;;;;;;;10.77;4.22;;;28.30;70.00;;;;;;5038039;28;20368;-66
2023/06/13 11:22:10;;;;;;;7.30;3.80;;;28.40;66.50;;;;;;5035174;28;20029;-64
2023/06/13 11:24:36;;;;;;;15.00;4.35;;;28.60;68.50;;;;;;5038220;28;20035;-65
2023/06/13 11:27:06;;;;;;;9.23;3.80;;;28.70;70.20;;;;;;5033067;28;20053;-64
2023/06/13 11:29:36;;;;;;;8.15;4.32;;;28.90;64.80;;;;;;5041350;28;20025;-66
2023/06/13 11:32:04;;;;;;;5.40;3.63;;;28.90;65.40;;;;;;5036669;28;20021;-66
2023/06/13 11:34:32;;;;;;;6.18;4.20;;;29.30;63.80;;;;;;5039109;28;20029;-65
2023/06/13 11:37:04;;;;;;;5.47;3.97;;;29.30;63.70;;;;;;5036985;28;20041;-64
2023/06/13 11:39:38;;;;;;;8.45;4.07;;;29.10;69.10;;;;;;5035222;28;20018;-63
2023/06/13 11:42:04;;;;;;;4.53;3.83;;;29.40;66.90;;;;;;5033013;28;20036;-64
2023/06/13 11:44:30;;;;;;;8.38;4.63;;;29.70;59.00;;;;;;5032868;28;20025;-64
2023/06/13 11:46:56;;;;;;;9.98;3.97;;;29.40;64.40;;;;;;5036316;28;20033;-64
2023/06/13 11:49:22;;;;;;;11.05;3.72;;;29.40;66.90;;;;;;5033025;28;20041;-64
2023/06/13 11:51:48;;;;;;;6.95;3.90;;;29.60;60.10;;;;;;5031663;28;20540;-63
2023/06/13 11:54:14;;;;;;;5.40;4.00;;;29.30;62.00;;;;;;5030611;28;20022;-63
2023/06/13 11:56:53;;;;;;;4.40;3.97;;;29.20;62.10;;;;;;5040446;28;20107;-64
2023/06/13 11:59:27;;;;;;;7.60;3.88;;;29.40;64.90;;;;;;5036266;28;20093;-65
2023/06/13 12:01:54;;;;;;;9.15;3.92;;;29.40;62.10;;;;;;5031201;28;20027;-64
2023/06/13 12:04:22;;;;;;;8.93;4.72;;;29.50;60.30;;;;;;5031558;28;20060;-64
2023/06/13 12:06:48;;;;;;;6.85;3.95;;;29.10;61.60;;;;;;5034924;28;20034;-64
2023/06/13 12:09:15;;;;;;;5.97;3.65;;;29.60;59.10;;;;;;5036185;28;20078;-64
2023/06/13 12:11:41;;;;;;;12.30;4.60;;;29.50;63.30;;;;;;5044094;28;20037;-64
2023/06/13 12:14:06;;;;;;;7.85;4.47;;;29.50;59.10;;;;;;5034345;28;20053;-65
2023/06/13 12:16:34;;;;;;;4.80;3.67;;;29.60;61.40;;;;;;5029740;28;20091;-64
2023/06/13 12:19:00;;;;;;;5.55;4.15;;;29.60;58.90;;;;;;5034753;28;20664;-63
2023/06/13 12:21:28;;;;;;;6.15;4.03;;;30.10;63.30;;;;;;5035259;28;20102;-64
2023/06/13 12:23:56;;;;;;;6.40;4.18;;;30.20;63.10;;;;;;5031748;28;20032;-65
2023/06/13 12:26:21;;;;;;;7.82;3.53;;;30.40;58.40;;;;;;5036851;28;20021;-66
2023/06/13 12:28:47;;;;;;;9.85;4.00;;;30.30;62.00;;;;;;5031401;28;20035;-66
2023/06/13 12:31:14;;;;;;;7.38;4.20;;;29.60;61.10;;;;;;5034065;28;20178;-64
2023/06/13 12:33:41;;;;;;;5.28;3.70;;;29.90;58.20;;;;;;5035151;28;20369;-65
2023/06/13 12:36:09;;;;;;;4.75;3.60;;;29.80;60.80;;;;;;5043034;28;20021;-66
2023/06/13 12:38:35;;;;;;;5.85;3.78;;;30.30;60.10;;;;;;5034774;28;20025;-66
2023/06/13 12:41:11;;;;;;;7.95;3.70;;;30.10;61.20;;;;;;5036212;28;20037;-66
2023/06/13 12:43:41;;;;;;;6.68;4.38;;;30.50;59.40;;;;;;5030037;28;20595;-66
2023/06/13 12:46:07;;;;;;;4.95;4.13;;;30.30;59.70;;;;;;5033117;28;20033;-66
2023/06/13 12:48:37;;;;;;;6.60;4.30;;;30.20;58.80;;;;;;5027226;28;20423;-65